sensor_id;sensor_type;location;lat;lon;timestamp;P1;durP1;ratioP1;P2;durP2;ratioP2
58950;SDS011;44730;53.158;6.398;2023-05-10T00:01:40;9.38;;;6.82;;
58950;SDS011;44730;53.158;6.398;2023-05-10T00:04:06;8.32;;;5.85;;
58950;SDS011;44730;53.158;6.398;2023-05-10T00:06:32;7.70;;;5.90;;
58950;SDS011;44730;53.158;6.398;2023-05-10T00:08:59;8.23;;;6.05;;
58950;SDS011;44730;53.158;6.398;2023-05-10T00:11:25;8.30;;;5.65;;
58950;SDS011;44730;53.158;6.398;2023-05-10T00:13:51;7.55;;;5.50;;
58950;SDS011;44730;53.158;6.398;2023-05-10T00:16:17;6.78;;;5.30;;
58950;SDS011;44730;53.158;6.398;2023-05-10T00:18:43;8.10;;;6.22;;
58950;SDS011;44730;53.158;6.398;2023-05-10T00:21:09;6.20;;;5.00;;
58950;SDS011;44730;53.158;6.398;2023-05-10T00:23:35;6.53;;;5.13;;
58950;SDS011;44730;53.158;6.398;2023-05-10T00:26:02;7.20;;;5.72;;
58950;SDS011;44730;53.158;6.398;2023-05-10T00:28:28;6.47;;;5.15;;
58950;SDS011;44730;53.158;6.398;2023-05-10T00:30:54;7.13;;;5.47;;
58950;SDS011;44730;53.158;6.398;2023-05-10T00:33:20;7.75;;;5.10;;
58950;SDS011;44730;53.158;6.398;2023-05-10T00:35:46;6.10;;;4.90;;
58950;SDS011;44730;53.158;6.398;2023-05-10T00:38:13;7.45;;;5.38;;
58950;SDS011;44730;53.158;6.398;2023-05-10T00:40:39;7.35;;;5.30;;
58950;SDS011;44730;53.158;6.398;2023-05-10T00:43:05;6.57;;;4.93;;
58950;SDS011;44730;53.158;6.398;2023-05-10T00:45:32;6.70;;;5.20;;
58950;SDS011;44730;53.158;6.398;2023-05-10T00:47:59;6.78;;;5.50;;
58950;SDS011;44730;53.158;6.398;2023-05-10T00:50:27;8.05;;;5.95;;
58950;SDS011;44730;53.158;6.398;2023-05-10T00:52:53;8.05;;;6.13;;
58950;SDS011;44730;53.158;6.398;2023-05-10T00:55:20;8.90;;;6.43;;
58950;SDS011;44730;53.158;6.398;2023-05-10T00:57:46;10.27;;;7.13;;
58950;SDS011;44730;53.158;6.398;2023-05-10T01:00:13;8.95;;;6.65;;
58950;SDS011;44730;53.158;6.398;2023-05-10T01:02:43;9.52;;;6.47;;
58950;SDS011;44730;53.158;6.398;2023-05-10T01:05:10;9.07;;;6.95;;
58950;SDS011;44730;53.158;6.398;2023-05-10T01:07:36;8.93;;;6.85;;
58950;SDS011;44730;53.158;6.398;2023-05-10T01:10:02;8.52;;;6.20;;
58950;SDS011;44730;53.158;6.398;2023-05-10T01:12:28;9.93;;;6.05;;
58950;SDS011;44730;53.158;6.398;2023-05-10T01:14:56;8.13;;;5.40;;
58950;SDS011;44730;53.158;6.398;2023-05-10T01:17:24;7.47;;;5.50;;
58950;SDS011;44730;53.158;6.398;2023-05-10T01:19:50;9.27;;;6.28;;
58950;SDS011;44730;53.158;6.398;2023-05-10T01:25:04;8.52;;;6.35;;
58950;SDS011;44730;53.158;6.398;2023-05-10T01:35:26;8.68;;;6.40;;
58950;SDS011;44730;53.158;6.398;2023-05-10T01:37:59;7.82;;;6.30;;
58950;SDS011;44730;53.158;6.398;2023-05-10T01:40:42;7.97;;;5.80;;
58950;SDS011;44730;53.158;6.398;2023-05-10T01:43:11;7.32;;;6.13;;
58950;SDS011;44730;53.158;6.398;2023-05-10T01:45:48;7.70;;;6.25;;
58950;SDS011;44730;53.158;6.398;2023-05-10T01:48:16;8.15;;;5.63;;
58950;SDS011;44730;53.158;6.398;2023-05-10T01:50:43;8.43;;;6.25;;
58950;SDS011;44730;53.158;6.398;2023-05-10T01:53:12;9.20;;;6.55;;
58950;SDS011;44730;53.158;6.398;2023-05-10T01:55:41;7.80;;;6.03;;
58950;SDS011;44730;53.158;6.398;2023-05-10T01:58:09;9.27;;;6.20;;
58950;SDS011;44730;53.158;6.398;2023-05-10T02:00:36;8.45;;;6.28;;
58950;SDS011;44730;53.158;6.398;2023-05-10T02:03:06;7.85;;;6.05;;
58950;SDS011;44730;53.158;6.398;2023-05-10T02:05:33;8.90;;;6.55;;
58950;SDS011;44730;53.158;6.398;2023-05-10T02:08:01;7.60;;;6.13;;
58950;SDS011;44730;53.158;6.398;2023-05-10T02:10:28;8.73;;;6.43;;
58950;SDS011;44730;53.158;6.398;2023-05-10T02:12:54;8.15;;;6.43;;
58950;SDS011;44730;53.158;6.398;2023-05-10T02:15:24;10.52;;;6.80;;
58950;SDS011;44730;53.158;6.398;2023-05-10T02:17:50;9.45;;;6.80;;
58950;SDS011;44730;53.158;6.398;2023-05-10T02:20:16;9.50;;;6.78;;
58950;SDS011;44730;53.158;6.398;2023-05-10T02:22:45;9.32;;;6.88;;
58950;SDS011;44730;53.158;6.398;2023-05-10T02:25:12;10.07;;;7.30;;
58950;SDS011;44730;53.158;6.398;2023-05-10T02:27:39;9.63;;;6.57;;
58950;SDS011;44730;53.158;6.398;2023-05-10T02:30:07;10.85;;;7.15;;
58950;SDS011;44730;53.158;6.398;2023-05-10T02:32:33;9.10;;;6.85;;
58950;SDS011;44730;53.158;6.398;2023-05-10T02:35:01;9.98;;;7.45;;
58950;SDS011;44730;53.158;6.398;2023-05-10T02:37:28;10.82;;;7.72;;
58950;SDS011;44730;53.158;6.398;2023-05-10T02:39:54;12.75;;;8.38;;
58950;SDS011;44730;53.158;6.398;2023-05-10T02:42:27;10.75;;;7.20;;
58950;SDS011;44730;53.158;6.398;2023-05-10T02:44:59;10.55;;;7.45;;
58950;SDS011;44730;53.158;6.398;2023-05-10T02:47:26;10.70;;;8.45;;
58950;SDS011;44730;53.158;6.398;2023-05-10T02:49:52;11.70;;;8.10;;
58950;SDS011;44730;53.158;6.398;2023-05-10T02:52:20;12.93;;;8.95;;
58950;SDS011;44730;53.158;6.398;2023-05-10T02:54:48;13.60;;;8.60;;
58950;SDS011;44730;53.158;6.398;2023-05-10T02:57:16;12.73;;;8.75;;
58950;SDS011;44730;53.158;6.398;2023-05-10T02:59:45;11.70;;;8.57;;
58950;SDS011;44730;53.158;6.398;2023-05-10T03:02:14;14.05;;;10.07;;
58950;SDS011;44730;53.158;6.398;2023-05-10T03:04:40;18.05;;;10.27;;
58950;SDS011;44730;53.158;6.398;2023-05-10T03:07:07;13.90;;;9.80;;
58950;SDS011;44730;53.158;6.398;2023-05-10T03:09:33;16.77;;;10.25;;
58950;SDS011;44730;53.158;6.398;2023-05-10T03:12:04;16.63;;;10.65;;
58950;SDS011;44730;53.158;6.398;2023-05-10T03:14:45;16.45;;;11.18;;
58950;SDS011;44730;53.158;6.398;2023-05-10T03:17:22;17.98;;;10.43;;
58950;SDS011;44730;53.158;6.398;2023-05-10T03:19:56;17.00;;;10.57;;
58950;SDS011;44730;53.158;6.398;2023-05-10T03:22:45;17.63;;;11.18;;
58950;SDS011;44730;53.158;6.398;2023-05-10T03:25:12;18.42;;;12.05;;
58950;SDS011;44730;53.158;6.398;2023-05-10T03:27:42;18.95;;;10.57;;
58950;SDS011;44730;53.158;6.398;2023-05-10T03:30:12;19.02;;;11.32;;
58950;SDS011;44730;53.158;6.398;2023-05-10T03:32:38;20.38;;;12.40;;
58950;SDS011;44730;53.158;6.398;2023-05-10T03:35:11;19.48;;;11.88;;
58950;SDS011;44730;53.158;6.398;2023-05-10T03:37:38;20.10;;;12.20;;
58950;SDS011;44730;53.158;6.398;2023-05-10T03:40:04;22.77;;;12.35;;
58950;SDS011;44730;53.158;6.398;2023-05-10T03:42:31;22.90;;;12.25;;
58950;SDS011;44730;53.158;6.398;2023-05-10T03:44:57;18.65;;;10.65;;
58950;SDS011;44730;53.158;6.398;2023-05-10T03:47:23;16.95;;;10.77;;
58950;SDS011;44730;53.158;6.398;2023-05-10T03:49:49;19.23;;;10.85;;
58950;SDS011;44730;53.158;6.398;2023-05-10T03:52:15;18.95;;;11.60;;
58950;SDS011;44730;53.158;6.398;2023-05-10T03:54:41;18.35;;;11.38;;
58950;SDS011;44730;53.158;6.398;2023-05-10T03:57:08;15.32;;;10.25;;
58950;SDS011;44730;53.158;6.398;2023-05-10T03:59:34;16.63;;;10.80;;
58950;SDS011;44730;53.158;6.398;2023-05-10T04:02:00;22.00;;;11.45;;
58950;SDS011;44730;53.158;6.398;2023-05-10T04:04:26;16.42;;;10.07;;
58950;SDS011;44730;53.158;6.398;2023-05-10T04:06:53;18.38;;;11.15;;
58950;SDS011;44730;53.158;6.398;2023-05-10T04:09:19;18.27;;;10.70;;
58950;SDS011;44730;53.158;6.398;2023-05-10T04:11:46;15.25;;;10.93;;
58950;SDS011;44730;53.158;6.398;2023-05-10T04:14:12;15.95;;;10.70;;
58950;SDS011;44730;53.158;6.398;2023-05-10T04:16:38;15.40;;;9.95;;
58950;SDS011;44730;53.158;6.398;2023-05-10T04:19:04;10.10;;;7.53;;
58950;SDS011;44730;53.158;6.398;2023-05-10T04:21:30;12.07;;;8.15;;
58950;SDS011;44730;53.158;6.398;2023-05-10T04:23:56;10.88;;;7.15;;
58950;SDS011;44730;53.158;6.398;2023-05-10T04:26:23;8.45;;;6.20;;
58950;SDS011;44730;53.158;6.398;2023-05-10T04:28:50;8.00;;;5.18;;
58950;SDS011;44730;53.158;6.398;2023-05-10T04:31:16;8.00;;;5.43;;
58950;SDS011;44730;53.158;6.398;2023-05-10T04:33:42;8.40;;;5.40;;
58950;SDS011;44730;53.158;6.398;2023-05-10T04:36:08;6.60;;;4.65;;
58950;SDS011;44730;53.158;6.398;2023-05-10T04:38:35;5.53;;;3.83;;
58950;SDS011;44730;53.158;6.398;2023-05-10T04:41:05;5.05;;;4.13;;
58950;SDS011;44730;53.158;6.398;2023-05-10T04:43:32;5.68;;;4.38;;
58950;SDS011;44730;53.158;6.398;2023-05-10T04:45:58;3.97;;;3.47;;
58950;SDS011;44730;53.158;6.398;2023-05-10T04:48:24;7.20;;;3.70;;
58950;SDS011;44730;53.158;6.398;2023-05-10T04:50:50;6.55;;;4.35;;
58950;SDS011;44730;53.158;6.398;2023-05-10T04:53:16;6.63;;;4.03;;
58950;SDS011;44730;53.158;6.398;2023-05-10T04:55:42;6.65;;;4.53;;
58950;SDS011;44730;53.158;6.398;2023-05-10T04:58:08;6.20;;;4.75;;
58950;SDS011;44730;53.158;6.398;2023-05-10T05:00:34;7.38;;;5.00;;
58950;SDS011;44730;53.158;6.398;2023-05-10T05:03:01;6.00;;;4.63;;
58950;SDS011;44730;53.158;6.398;2023-05-10T05:05:27;5.78;;;4.82;;
58950;SDS011;44730;53.158;6.398;2023-05-10T05:07:53;7.63;;;5.07;;
58950;SDS011;44730;53.158;6.398;2023-05-10T05:10:19;5.65;;;4.57;;
58950;SDS011;44730;53.158;6.398;2023-05-10T05:12:45;6.88;;;4.63;;
58950;SDS011;44730;53.158;6.398;2023-05-10T05:15:11;8.13;;;5.38;;
58950;SDS011;44730;53.158;6.398;2023-05-10T05:17:37;6.03;;;4.78;;
58950;SDS011;44730;53.158;6.398;2023-05-10T05:20:03;7.32;;;5.28;;
58950;SDS011;44730;53.158;6.398;2023-05-10T05:22:30;7.72;;;5.32;;
58950;SDS011;44730;53.158;6.398;2023-05-10T05:24:57;6.88;;;5.30;;
58950;SDS011;44730;53.158;6.398;2023-05-10T05:27:23;7.93;;;5.20;;
58950;SDS011;44730;53.158;6.398;2023-05-10T05:29:54;7.93;;;5.65;;
58950;SDS011;44730;53.158;6.398;2023-05-10T05:32:20;6.43;;;4.82;;
58950;SDS011;44730;53.158;6.398;2023-05-10T05:34:47;6.22;;;4.50;;
58950;SDS011;44730;53.158;6.398;2023-05-10T05:37:19;6.93;;;5.55;;
58950;SDS011;44730;53.158;6.398;2023-05-10T05:39:46;7.07;;;5.00;;
58950;SDS011;44730;53.158;6.398;2023-05-10T05:42:12;6.65;;;4.93;;
58950;SDS011;44730;53.158;6.398;2023-05-10T05:44:39;6.85;;;5.22;;
58950;SDS011;44730;53.158;6.398;2023-05-10T05:47:05;6.47;;;4.95;;
58950;SDS011;44730;53.158;6.398;2023-05-10T05:49:32;8.05;;;5.30;;
58950;SDS011;44730;53.158;6.398;2023-05-10T05:52:02;6.50;;;4.90;;
58950;SDS011;44730;53.158;6.398;2023-05-10T05:54:28;6.53;;;4.95;;
58950;SDS011;44730;53.158;6.398;2023-05-10T05:56:59;5.75;;;4.50;;
58950;SDS011;44730;53.158;6.398;2023-05-10T05:59:25;5.97;;;4.60;;
58950;SDS011;44730;53.158;6.398;2023-05-10T06:01:52;7.32;;;5.60;;
58950;SDS011;44730;53.158;6.398;2023-05-10T06:04:18;8.60;;;6.22;;
58950;SDS011;44730;53.158;6.398;2023-05-10T06:06:44;10.10;;;6.65;;
58950;SDS011;44730;53.158;6.398;2023-05-10T06:09:10;10.85;;;7.57;;
58950;SDS011;44730;53.158;6.398;2023-05-10T06:11:37;12.50;;;7.75;;
58950;SDS011;44730;53.158;6.398;2023-05-10T06:14:03;13.98;;;8.60;;
58950;SDS011;44730;53.158;6.398;2023-05-10T06:16:30;17.45;;;9.25;;
58950;SDS011;44730;53.158;6.398;2023-05-10T06:18:56;14.70;;;9.75;;
58950;SDS011;44730;53.158;6.398;2023-05-10T06:21:22;15.38;;;9.20;;
58950;SDS011;44730;53.158;6.398;2023-05-10T06:23:48;12.55;;;8.57;;
58950;SDS011;44730;53.158;6.398;2023-05-10T06:26:15;15.93;;;9.43;;
58950;SDS011;44730;53.158;6.398;2023-05-10T06:28:41;10.48;;;6.75;;
58950;SDS011;44730;53.158;6.398;2023-05-10T06:31:07;7.53;;;5.50;;
58950;SDS011;44730;53.158;6.398;2023-05-10T06:33:33;6.30;;;4.28;;
58950;SDS011;44730;53.158;6.398;2023-05-10T06:35:59;5.93;;;4.03;;
58950;SDS011;44730;53.158;6.398;2023-05-10T06:38:25;5.45;;;3.55;;
58950;SDS011;44730;53.158;6.398;2023-05-10T06:40:51;4.55;;;2.65;;
58950;SDS011;44730;53.158;6.398;2023-05-10T06:43:17;3.88;;;2.75;;
58950;SDS011;44730;53.158;6.398;2023-05-10T06:45:44;3.35;;;2.17;;
58950;SDS011;44730;53.158;6.398;2023-05-10T06:48:10;3.25;;;2.30;;
58950;SDS011;44730;53.158;6.398;2023-05-10T06:50:36;2.33;;;1.85;;
58950;SDS011;44730;53.158;6.398;2023-05-10T06:53:02;2.30;;;1.83;;
58950;SDS011;44730;53.158;6.398;2023-05-10T06:55:28;2.13;;;1.92;;
58950;SDS011;44730;53.158;6.398;2023-05-10T06:57:55;2.47;;;1.92;;
58950;SDS011;44730;53.158;6.398;2023-05-10T07:00:22;2.22;;;1.80;;
58950;SDS011;44730;53.158;6.398;2023-05-10T07:02:48;2.70;;;1.80;;
58950;SDS011;44730;53.158;6.398;2023-05-10T07:05:14;2.25;;;1.90;;
58950;SDS011;44730;53.158;6.398;2023-05-10T07:07:40;2.33;;;2.10;;
58950;SDS011;44730;53.158;6.398;2023-05-10T07:10:06;2.35;;;2.00;;
58950;SDS011;44730;53.158;6.398;2023-05-10T07:12:35;2.40;;;1.98;;
58950;SDS011;44730;53.158;6.398;2023-05-10T07:15:01;3.53;;;2.22;;
58950;SDS011;44730;53.158;6.398;2023-05-10T07:17:28;3.40;;;2.80;;
58950;SDS011;44730;53.158;6.398;2023-05-10T07:19:54;4.50;;;2.97;;
58950;SDS011;44730;53.158;6.398;2023-05-10T07:22:20;3.00;;;2.70;;
58950;SDS011;44730;53.158;6.398;2023-05-10T07:24:46;3.33;;;2.78;;
58950;SDS011;44730;53.158;6.398;2023-05-10T07:27:12;4.07;;;3.55;;
58950;SDS011;44730;53.158;6.398;2023-05-10T07:29:38;3.78;;;3.28;;
58950;SDS011;44730;53.158;6.398;2023-05-10T07:32:06;4.70;;;3.67;;
58950;SDS011;44730;53.158;6.398;2023-05-10T07:34:33;3.50;;;3.20;;
58950;SDS011;44730;53.158;6.398;2023-05-10T07:36:59;3.53;;;3.00;;
58950;SDS011;44730;53.158;6.398;2023-05-10T07:39:25;3.38;;;2.85;;
58950;SDS011;44730;53.158;6.398;2023-05-10T07:41:52;6.93;;;3.45;;
58950;SDS011;44730;53.158;6.398;2023-05-10T07:44:18;4.18;;;3.15;;
58950;SDS011;44730;53.158;6.398;2023-05-10T07:46:45;4.53;;;3.47;;
58950;SDS011;44730;53.158;6.398;2023-05-10T07:49:11;4.53;;;2.90;;
58950;SDS011;44730;53.158;6.398;2023-05-10T07:51:37;3.67;;;3.08;;
58950;SDS011;44730;53.158;6.398;2023-05-10T07:54:03;3.80;;;3.33;;
58950;SDS011;44730;53.158;6.398;2023-05-10T07:56:30;5.20;;;3.78;;
58950;SDS011;44730;53.158;6.398;2023-05-10T07:59:00;3.95;;;3.55;;
58950;SDS011;44730;53.158;6.398;2023-05-10T08:01:29;5.10;;;3.90;;
58950;SDS011;44730;53.158;6.398;2023-05-10T08:03:56;5.03;;;4.22;;
58950;SDS011;44730;53.158;6.398;2023-05-10T08:06:22;4.30;;;3.50;;
58950;SDS011;44730;53.158;6.398;2023-05-10T08:08:48;4.97;;;4.07;;
58950;SDS011;44730;53.158;6.398;2023-05-10T08:11:16;5.82;;;4.13;;
58950;SDS011;44730;53.158;6.398;2023-05-10T08:13:42;4.47;;;3.35;;
58950;SDS011;44730;53.158;6.398;2023-05-10T08:16:09;5.47;;;3.72;;
58950;SDS011;44730;53.158;6.398;2023-05-10T08:18:36;4.30;;;3.80;;
58950;SDS011;44730;53.158;6.398;2023-05-10T08:21:03;5.75;;;3.97;;
58950;SDS011;44730;53.158;6.398;2023-05-10T08:23:29;4.35;;;3.60;;
58950;SDS011;44730;53.158;6.398;2023-05-10T08:25:55;5.40;;;3.67;;
58950;SDS011;44730;53.158;6.398;2023-05-10T08:28:21;5.47;;;4.05;;
58950;SDS011;44730;53.158;6.398;2023-05-10T08:30:47;5.57;;;3.60;;
58950;SDS011;44730;53.158;6.398;2023-05-10T08:33:13;5.07;;;4.00;;
58950;SDS011;44730;53.158;6.398;2023-05-10T08:35:39;5.30;;;4.10;;
58950;SDS011;44730;53.158;6.398;2023-05-10T08:38:06;6.20;;;4.25;;
58950;SDS011;44730;53.158;6.398;2023-05-10T08:40:32;4.78;;;3.47;;
58950;SDS011;44730;53.158;6.398;2023-05-10T08:43:10;6.70;;;3.80;;
58950;SDS011;44730;53.158;6.398;2023-05-10T08:45:38;5.07;;;3.83;;
58950;SDS011;44730;53.158;6.398;2023-05-10T08:48:08;5.40;;;3.95;;
58950;SDS011;44730;53.158;6.398;2023-05-10T08:50:38;6.07;;;4.85;;
58950;SDS011;44730;53.158;6.398;2023-05-10T08:53:06;6.85;;;4.40;;
58950;SDS011;44730;53.158;6.398;2023-05-10T08:55:34;5.38;;;4.30;;
58950;SDS011;44730;53.158;6.398;2023-05-10T08:58:02;6.03;;;4.80;;
58950;SDS011;44730;53.158;6.398;2023-05-10T09:00:29;6.15;;;4.68;;
58950;SDS011;44730;53.158;6.398;2023-05-10T09:02:55;7.07;;;4.82;;
58950;SDS011;44730;53.158;6.398;2023-05-10T09:05:22;7.22;;;5.75;;
58950;SDS011;44730;53.158;6.398;2023-05-10T09:07:48;7.30;;;5.28;;
58950;SDS011;44730;53.158;6.398;2023-05-10T09:10:14;5.45;;;4.50;;
58950;SDS011;44730;53.158;6.398;2023-05-10T09:12:41;5.97;;;4.43;;
58950;SDS011;44730;53.158;6.398;2023-05-10T09:15:09;5.22;;;4.05;;
58950;SDS011;44730;53.158;6.398;2023-05-10T09:17:35;5.43;;;4.55;;
58950;SDS011;44730;53.158;6.398;2023-05-10T09:20:03;5.22;;;4.40;;
58950;SDS011;44730;53.158;6.398;2023-05-10T09:22:30;6.10;;;4.88;;
58950;SDS011;44730;53.158;6.398;2023-05-10T09:27:36;6.70;;;4.88;;
58950;SDS011;44730;53.158;6.398;2023-05-10T09:30:05;5.68;;;4.40;;
58950;SDS011;44730;53.158;6.398;2023-05-10T09:32:35;7.00;;;5.63;;
58950;SDS011;44730;53.158;6.398;2023-05-10T09:35:15;6.28;;;4.68;;
58950;SDS011;44730;53.158;6.398;2023-05-10T09:37:45;5.97;;;4.78;;
58950;SDS011;44730;53.158;6.398;2023-05-10T09:40:13;6.25;;;4.93;;
58950;SDS011;44730;53.158;6.398;2023-05-10T09:42:41;5.60;;;4.85;;
58950;SDS011;44730;53.158;6.398;2023-05-10T09:45:08;5.35;;;4.85;;
58950;SDS011;44730;53.158;6.398;2023-05-10T09:47:34;7.80;;;5.15;;
58950;SDS011;44730;53.158;6.398;2023-05-10T09:50:01;5.65;;;4.65;;
58950;SDS011;44730;53.158;6.398;2023-05-10T09:52:29;6.18;;;4.90;;
58950;SDS011;44730;53.158;6.398;2023-05-10T09:54:55;5.82;;;4.72;;
58950;SDS011;44730;53.158;6.398;2023-05-10T09:57:22;6.18;;;4.70;;
58950;SDS011;44730;53.158;6.398;2023-05-10T09:59:48;5.05;;;4.53;;
58950;SDS011;44730;53.158;6.398;2023-05-10T10:02:15;5.47;;;4.20;;
58950;SDS011;44730;53.158;6.398;2023-05-10T10:04:42;5.13;;;4.00;;
58950;SDS011;44730;53.158;6.398;2023-05-10T10:07:08;4.75;;;3.80;;
58950;SDS011;44730;53.158;6.398;2023-05-10T10:09:35;4.78;;;4.22;;
58950;SDS011;44730;53.158;6.398;2023-05-10T10:12:01;5.10;;;3.90;;
58950;SDS011;44730;53.158;6.398;2023-05-10T10:14:28;4.22;;;3.67;;
58950;SDS011;44730;53.158;6.398;2023-05-10T10:16:55;4.50;;;3.72;;
58950;SDS011;44730;53.158;6.398;2023-05-10T10:19:22;5.85;;;3.63;;
58950;SDS011;44730;53.158;6.398;2023-05-10T10:21:49;3.83;;;3.30;;
58950;SDS011;44730;53.158;6.398;2023-05-10T10:24:15;5.85;;;4.10;;
58950;SDS011;44730;53.158;6.398;2023-05-10T10:26:42;4.75;;;3.53;;
58950;SDS011;44730;53.158;6.398;2023-05-10T10:34:36;4.68;;;3.03;;
58950;SDS011;44730;53.158;6.398;2023-05-10T10:37:05;3.85;;;3.42;;
58950;SDS011;44730;53.158;6.398;2023-05-10T10:39:32;5.13;;;3.42;;
58950;SDS011;44730;53.158;6.398;2023-05-10T10:42:02;4.47;;;3.65;;
58950;SDS011;44730;53.158;6.398;2023-05-10T10:49:28;4.22;;;3.65;;
58950;SDS011;44730;53.158;6.398;2023-05-10T10:54:39;5.03;;;3.92;;
58950;SDS011;44730;53.158;6.398;2023-05-10T10:57:10;4.70;;;3.90;;
58950;SDS011;44730;53.158;6.398;2023-05-10T10:59:41;4.80;;;4.05;;
58950;SDS011;44730;53.158;6.398;2023-05-10T11:02:08;6.25;;;4.03;;
58950;SDS011;44730;53.158;6.398;2023-05-10T11:04:43;4.80;;;4.00;;
58950;SDS011;44730;53.158;6.398;2023-05-10T11:07:17;5.28;;;4.28;;
58950;SDS011;44730;53.158;6.398;2023-05-10T11:09:45;5.83;;;4.67;;
58950;SDS011;44730;53.158;6.398;2023-05-10T11:12:12;4.97;;;4.38;;
58950;SDS011;44730;53.158;6.398;2023-05-10T11:14:39;7.07;;;4.97;;
58950;SDS011;44730;53.158;6.398;2023-05-10T11:17:27;5.22;;;4.43;;
58950;SDS011;44730;53.158;6.398;2023-05-10T11:20:10;5.32;;;4.18;;
58950;SDS011;44730;53.158;6.398;2023-05-10T11:22:49;6.40;;;4.50;;
58950;SDS011;44730;53.158;6.398;2023-05-10T11:25:16;5.13;;;4.63;;
58950;SDS011;44730;53.158;6.398;2023-05-10T11:27:42;6.45;;;4.70;;
58950;SDS011;44730;53.158;6.398;2023-05-10T11:30:09;5.50;;;4.95;;
58950;SDS011;44730;53.158;6.398;2023-05-10T11:32:39;5.93;;;4.50;;
58950;SDS011;44730;53.158;6.398;2023-05-10T11:35:09;7.50;;;5.68;;
58950;SDS011;44730;53.158;6.398;2023-05-10T11:37:35;5.65;;;5.00;;
58950;SDS011;44730;53.158;6.398;2023-05-10T11:40:02;6.35;;;5.60;;
58950;SDS011;44730;53.158;6.398;2023-05-10T11:42:28;6.55;;;5.55;;
58950;SDS011;44730;53.158;6.398;2023-05-10T11:44:55;8.00;;;5.68;;
58950;SDS011;44730;53.158;6.398;2023-05-10T11:47:21;5.78;;;5.18;;
58950;SDS011;44730;53.158;6.398;2023-05-10T11:49:47;7.80;;;6.05;;
58950;SDS011;44730;53.158;6.398;2023-05-10T11:52:13;7.85;;;6.30;;
58950;SDS011;44730;53.158;6.398;2023-05-10T11:54:55;6.72;;;6.00;;
58950;SDS011;44730;53.158;6.398;2023-05-10T11:57:25;9.02;;;6.72;;
58950;SDS011;44730;53.158;6.398;2023-05-10T11:59:58;7.50;;;6.30;;
58950;SDS011;44730;53.158;6.398;2023-05-10T12:02:25;7.25;;;5.80;;
58950;SDS011;44730;53.158;6.398;2023-05-10T12:04:51;7.28;;;5.50;;
58950;SDS011;44730;53.158;6.398;2023-05-10T12:07:17;8.65;;;6.30;;
58950;SDS011;44730;53.158;6.398;2023-05-10T12:09:43;9.90;;;6.22;;
58950;SDS011;44730;53.158;6.398;2023-05-10T12:12:20;6.82;;;5.57;;
58950;SDS011;44730;53.158;6.398;2023-05-10T12:14:48;7.15;;;5.10;;
58950;SDS011;44730;53.158;6.398;2023-05-10T12:17:14;7.28;;;5.25;;
58950;SDS011;44730;53.158;6.398;2023-05-10T12:19:41;6.47;;;4.68;;
58950;SDS011;44730;53.158;6.398;2023-05-10T12:22:08;6.22;;;4.90;;
58950;SDS011;44730;53.158;6.398;2023-05-10T12:24:35;5.70;;;4.55;;
58950;SDS011;44730;53.158;6.398;2023-05-10T12:27:04;5.53;;;4.90;;
58950;SDS011;44730;53.158;6.398;2023-05-10T12:29:33;6.72;;;4.80;;
58950;SDS011;44730;53.158;6.398;2023-05-10T12:31:59;6.63;;;4.60;;
58950;SDS011;44730;53.158;6.398;2023-05-10T12:34:26;5.95;;;4.55;;
58950;SDS011;44730;53.158;6.398;2023-05-10T12:36:52;6.00;;;4.55;;
58950;SDS011;44730;53.158;6.398;2023-05-10T12:39:19;7.07;;;4.38;;
58950;SDS011;44730;53.158;6.398;2023-05-10T12:41:46;6.43;;;4.20;;
58950;SDS011;44730;53.158;6.398;2023-05-10T12:44:12;6.53;;;4.43;;
58950;SDS011;44730;53.158;6.398;2023-05-10T12:46:38;6.07;;;4.60;;
58950;SDS011;44730;53.158;6.398;2023-05-10T12:49:04;5.63;;;4.38;;
58950;SDS011;44730;53.158;6.398;2023-05-10T12:51:30;5.85;;;4.38;;
58950;SDS011;44730;53.158;6.398;2023-05-10T12:53:56;6.75;;;5.07;;
58950;SDS011;44730;53.158;6.398;2023-05-10T12:56:22;5.18;;;4.65;;
58950;SDS011;44730;53.158;6.398;2023-05-10T12:58:48;5.80;;;4.80;;
58950;SDS011;44730;53.158;6.398;2023-05-10T13:01:16;5.90;;;4.57;;
58950;SDS011;44730;53.158;6.398;2023-05-10T13:03:42;5.90;;;4.82;;
58950;SDS011;44730;53.158;6.398;2023-05-10T13:06:08;5.63;;;4.55;;
58950;SDS011;44730;53.158;6.398;2023-05-10T13:08:34;6.63;;;5.05;;
58950;SDS011;44730;53.158;6.398;2023-05-10T13:11:01;5.85;;;4.68;;
58950;SDS011;44730;53.158;6.398;2023-05-10T13:13:27;6.72;;;4.82;;
58950;SDS011;44730;53.158;6.398;2023-05-10T13:15:53;6.20;;;4.97;;
58950;SDS011;44730;53.158;6.398;2023-05-10T13:18:22;5.72;;;4.72;;
58950;SDS011;44730;53.158;6.398;2023-05-10T13:20:49;6.07;;;4.88;;
58950;SDS011;44730;53.158;6.398;2023-05-10T13:23:15;6.13;;;4.45;;
58950;SDS011;44730;53.158;6.398;2023-05-10T13:25:41;5.38;;;4.30;;
58950;SDS011;44730;53.158;6.398;2023-05-10T13:28:07;6.80;;;4.63;;
58950;SDS011;44730;53.158;6.398;2023-05-10T13:30:33;4.65;;;4.15;;
58950;SDS011;44730;53.158;6.398;2023-05-10T13:32:59;4.75;;;4.25;;
58950;SDS011;44730;53.158;6.398;2023-05-10T13:35:25;5.70;;;4.22;;
58950;SDS011;44730;53.158;6.398;2023-05-10T13:37:51;5.20;;;4.15;;
58950;SDS011;44730;53.158;6.398;2023-05-10T13:40:18;5.68;;;4.57;;
58950;SDS011;44730;53.158;6.398;2023-05-10T13:42:44;4.93;;;4.05;;
58950;SDS011;44730;53.158;6.398;2023-05-10T13:45:11;4.50;;;3.72;;
58950;SDS011;44730;53.158;6.398;2023-05-10T13:47:37;4.78;;;4.28;;
58950;SDS011;44730;53.158;6.398;2023-05-10T13:50:03;4.68;;;3.97;;
58950;SDS011;44730;53.158;6.398;2023-05-10T13:52:29;5.20;;;4.10;;
58950;SDS011;44730;53.158;6.398;2023-05-10T13:54:55;6.15;;;4.28;;
58950;SDS011;44730;53.158;6.398;2023-05-10T13:57:22;4.93;;;4.10;;
58950;SDS011;44730;53.158;6.398;2023-05-10T13:59:49;6.03;;;4.45;;
58950;SDS011;44730;53.158;6.398;2023-05-10T14:02:15;6.60;;;4.70;;
58950;SDS011;44730;53.158;6.398;2023-05-10T14:04:41;4.28;;;3.47;;
58950;SDS011;44730;53.158;6.398;2023-05-10T14:07:07;5.68;;;3.92;;
58950;SDS011;44730;53.158;6.398;2023-05-10T14:09:33;5.15;;;4.32;;
58950;SDS011;44730;53.158;6.398;2023-05-10T14:12:00;5.35;;;4.22;;
58950;SDS011;44730;53.158;6.398;2023-05-10T14:14:26;5.65;;;4.88;;
58950;SDS011;44730;53.158;6.398;2023-05-10T14:16:54;5.82;;;4.82;;
58950;SDS011;44730;53.158;6.398;2023-05-10T14:19:20;6.25;;;4.55;;
58950;SDS011;44730;53.158;6.398;2023-05-10T14:21:46;5.85;;;4.65;;
58950;SDS011;44730;53.158;6.398;2023-05-10T14:24:12;6.53;;;5.72;;
58950;SDS011;44730;53.158;6.398;2023-05-10T14:26:38;6.00;;;5.40;;
58950;SDS011;44730;53.158;6.398;2023-05-10T14:29:04;6.65;;;5.43;;
58950;SDS011;44730;53.158;6.398;2023-05-10T14:31:31;7.90;;;5.55;;
58950;SDS011;44730;53.158;6.398;2023-05-10T14:33:57;5.90;;;5.18;;
58950;SDS011;44730;53.158;6.398;2023-05-10T14:36:24;6.75;;;5.93;;
58950;SDS011;44730;53.158;6.398;2023-05-10T14:38:50;7.15;;;5.43;;
58950;SDS011;44730;53.158;6.398;2023-05-10T14:41:17;6.35;;;5.30;;
58950;SDS011;44730;53.158;6.398;2023-05-10T14:43:43;7.88;;;5.60;;
58950;SDS011;44730;53.158;6.398;2023-05-10T14:46:09;7.20;;;5.50;;
58950;SDS011;44730;53.158;6.398;2023-05-10T14:48:35;5.88;;;4.95;;
58950;SDS011;44730;53.158;6.398;2023-05-10T14:51:01;6.43;;;5.20;;
58950;SDS011;44730;53.158;6.398;2023-05-10T14:53:28;6.45;;;5.40;;
58950;SDS011;44730;53.158;6.398;2023-05-10T14:55:54;6.28;;;5.25;;
58950;SDS011;44730;53.158;6.398;2023-05-10T14:58:20;7.97;;;5.13;;
58950;SDS011;44730;53.158;6.398;2023-05-10T15:00:47;6.55;;;5.47;;
58950;SDS011;44730;53.158;6.398;2023-05-10T15:03:13;7.25;;;4.93;;
58950;SDS011;44730;53.158;6.398;2023-05-10T15:05:39;5.30;;;4.55;;
58950;SDS011;44730;53.158;6.398;2023-05-10T15:08:05;6.05;;;5.25;;
58950;SDS011;44730;53.158;6.398;2023-05-10T15:10:31;7.93;;;5.28;;
58950;SDS011;44730;53.158;6.398;2023-05-10T15:12:58;5.95;;;4.72;;